createdAt,value
2023-01-03T00:02:19.692Z,100428.84
2023-01-03T00:04:49.606Z,100412.47
2023-01-03T00:07:16.919Z,100398.72
2023-01-03T00:09:43.242Z,100397.63
2023-01-03T00:12:09.647Z,100404.91
2023-01-03T00:14:39.027Z,100419.19
2023-01-03T00:17:07.268Z,100416.53
2023-01-03T00:19:36.758Z,100431.34
2023-01-03T00:22:03.854Z,100458.13
2023-01-03T00:24:30.230Z,100478.28
2023-01-03T00:26:56.565Z,100475.63
2023-01-03T00:29:23.156Z,100473.94
2023-01-03T00:31:49.861Z,100481.22
2023-01-03T00:34:16.587Z,100480.50
2023-01-03T00:36:42.955Z,100470.03
2023-01-03T00:39:09.546Z,100492.44
2023-01-03T00:41:35.947Z,100521.41
2023-01-03T00:44:02.434Z,100526.44
2023-01-03T00:46:28.902Z,100548.53
2023-01-03T00:48:55.525Z,100549.38
2023-01-03T00:51:26.460Z,100541.66
2023-01-03T00:53:55.427Z,100551.47
2023-01-03T00:56:24.127Z,100561.97
2023-01-03T00:58:51.242Z,100555.81
2023-01-03T01:01:23.970Z,100566.59
2023-01-03T01:04:05.611Z,100557.91
2023-01-03T01:06:35.976Z,100551.03
2023-01-03T01:09:05.263Z,100555.50
2023-01-03T01:11:31.604Z,100557.59
2023-01-03T01:13:58.015Z,100571.16
2023-01-03T01:16:30.380Z,100585.44
2023-01-03T01:18:59.486Z,100580.13
2023-01-03T01:21:31.324Z,100583.63
2023-01-03T01:24:00.052Z,100600.69
2023-01-03T01:26:27.150Z,100599.28
2023-01-03T01:28:54.210Z,100603.28
2023-01-03T01:31:24.555Z,100623.00
2023-01-03T01:33:52.974Z,100630.25
2023-01-03T01:36:25.725Z,100641.72
2023-01-03T01:39:00.740Z,100635.47
2023-01-03T01:41:29.913Z,100637.41
2023-01-03T01:44:00.395Z,100631.34
2023-01-03T01:46:32.787Z,100636.94
2023-01-03T01:49:02.704Z,100644.72
2023-01-03T01:51:32.786Z,100646.34
2023-01-03T01:54:02.014Z,100653.94
2023-01-03T01:56:33.542Z,100686.69
2023-01-03T01:59:00.239Z,100714.63
2023-01-03T02:01:26.992Z,100748.28
2023-01-03T02:03:59.045Z,100754.56
2023-01-03T02:06:25.433Z,100751.34
2023-01-03T02:08:52.120Z,100756.75
2023-01-03T02:11:26.338Z,100744.59
2023-01-03T02:14:11.599Z,100747.59
2023-01-03T02:17:15.623Z,100745.09
2023-01-03T02:20:00.360Z,100742.94
2023-01-03T02:22:38.666Z,100738.69
2023-01-03T02:25:41.481Z,100746.66
2023-01-03T02:28:42.050Z,100754.38
2023-01-03T02:31:30.450Z,100772.47
2023-01-03T02:34:05.518Z,100749.53
2023-01-03T02:36:49.620Z,100750.66
2023-01-03T02:40:00.050Z,100748.59
2023-01-03T02:43:07.948Z,100737.72
2023-01-03T02:45:59.507Z,100719.13
2023-01-03T02:49:06.113Z,100722.72
2023-01-03T02:51:44.143Z,100702.22
2023-01-03T02:54:14.597Z,100715.06
2023-01-03T02:56:52.725Z,100725.44
2023-01-03T02:59:25.880Z,100728.09
2023-01-03T03:01:53.519Z,100736.88
2023-01-03T03:04:21.197Z,100748.34
2023-01-03T03:07:01.427Z,100761.03
2023-01-03T03:09:27.805Z,100772.03
2023-01-03T03:11:54.457Z,100780.59
2023-01-03T03:14:25.745Z,100791.59
2023-01-03T03:16:55.575Z,100801.72
2023-01-03T03:19:37.876Z,100819.69
2023-01-03T03:22:11.179Z,100834.00
2023-01-03T03:24:37.809Z,100858.53
2023-01-03T03:27:12.936Z,100870.13
2023-01-03T03:29:39.724Z,100876.69
2023-01-03T03:32:06.365Z,100888.28
2023-01-03T03:34:34.089Z,100894.06
2023-01-03T03:37:09.757Z,100904.78
2023-01-03T03:39:36.805Z,100911.53
2023-01-03T03:42:18.497Z,100941.69
2023-01-03T03:44:47.414Z,100966.50
2023-01-03T03:47:21.173Z,100396.72
2023-01-03T03:49:51.460Z,100378.13
2023-01-03T03:52:24.925Z,100351.34
2023-01-03T03:54:59.386Z,100338.63
2023-01-03T03:57:51.648Z,100346.19
2023-01-03T04:00:24.709Z,100351.50
2023-01-03T04:02:53.524Z,100341.88
2023-01-03T04:05:23.338Z,100346.44
2023-01-03T04:07:49.976Z,100338.63
2023-01-03T04:10:17.187Z,100347.56
2023-01-03T04:12:43.735Z,100348.78
2023-01-03T04:15:10.497Z,100343.50
2023-01-03T04:17:36.831Z,100338.81
2023-01-03T04:20:03.471Z,100348.84
2023-01-03T04:22:29.958Z,100351.31
2023-01-03T04:24:56.447Z,100351.81
2023-01-03T04:27:22.975Z,100344.25
2023-01-03T04:29:49.293Z,100338.22
2023-01-03T04:32:15.714Z,100331.50
2023-01-03T04:34:42.136Z,100331.06
2023-01-03T04:37:08.549Z,100320.72
2023-01-03T04:39:35.114Z,100310.47
2023-01-03T04:42:01.518Z,100312.28
2023-01-03T04:44:28.427Z,100314.81
2023-01-03T04:46:54.858Z,100301.38
2023-01-03T04:49:21.418Z,100305.59
2023-01-03T04:51:47.768Z,100303.31
2023-01-03T04:54:14.259Z,100310.81
2023-01-03T04:56:40.703Z,100297.59
2023-01-03T04:59:07.061Z,100286.00
2023-01-03T05:01:33.701Z,100281.94
2023-01-03T05:04:01.775Z,100284.13
2023-01-03T05:06:28.954Z,100281.97
2023-01-03T05:08:56.003Z,100269.56
2023-01-03T05:11:22.473Z,100274.16
2023-01-03T05:13:48.852Z,100270.44
2023-01-03T05:16:15.612Z,100268.72
2023-01-03T05:18:42.092Z,100267.53
2023-01-03T05:21:15.889Z,100265.00
2023-01-03T05:23:42.223Z,100262.47
2023-01-03T05:26:20.274Z,100268.72
2023-01-03T05:28:51.229Z,100268.97
2023-01-03T05:31:17.672Z,100269.22
2023-01-03T05:33:44.396Z,100274.34
2023-01-03T05:36:11.182Z,100269.38
2023-01-03T05:38:38.579Z,100270.72
2023-01-03T05:41:05.930Z,100260.63
2023-01-03T05:43:32.359Z,100279.31
2023-01-03T05:45:58.875Z,100273.88
2023-01-03T05:48:25.501Z,100266.16
2023-01-03T05:50:51.886Z,100266.16
2023-01-03T05:53:18.529Z,100264.75
2023-01-03T05:55:45.055Z,100267.78
2023-01-03T05:58:12.296Z,100264.50
2023-01-03T06:00:38.722Z,100272.69
2023-01-03T06:03:05.086Z,100272.69
2023-01-03T06:05:31.598Z,100271.16
2023-01-03T06:08:00.785Z,100271.16
2023-01-03T06:10:27.274Z,100276.69
2023-01-03T06:12:53.863Z,100272.72
2023-01-03T06:15:20.281Z,100283.66
2023-01-03T06:17:46.660Z,100285.47
2023-01-03T06:20:13.372Z,100283.91
2023-01-03T06:22:39.737Z,100279.00
2023-01-03T06:25:06.300Z,100279.34
2023-01-03T06:27:32.986Z,100277.06
2023-01-03T06:29:59.366Z,100275.63
2023-01-03T06:32:25.859Z,100275.88
2023-01-03T06:34:52.267Z,100272.25
2023-01-03T06:37:18.896Z,100278.63
2023-01-03T06:39:45.453Z,100276.13
2023-01-03T06:42:11.964Z,100270.84
2023-01-03T06:44:38.382Z,100261.31
2023-01-03T06:47:05.041Z,100263.47
2023-01-03T06:49:31.565Z,100259.41
2023-01-03T06:51:58.068Z,100254.94
2023-01-03T06:54:31.288Z,100262.88
2023-01-03T06:56:58.607Z,100258.22
2023-01-03T06:59:25.430Z,100246.41
2023-01-03T07:01:53.428Z,100260.50
2023-01-03T07:04:23.730Z,100261.78
2023-01-03T07:06:50.763Z,100263.97
2023-01-03T07:09:17.670Z,100260.81
2023-01-03T07:11:44.383Z,100265.28
2023-01-03T07:14:11.679Z,100260.00
2023-01-03T07:16:47.151Z,100272.47
2023-01-03T07:19:18.454Z,100268.25
2023-01-03T07:21:45.268Z,100264.78
2023-01-03T07:24:14.118Z,100265.75
2023-01-03T07:26:40.730Z,100280.63
2023-01-03T07:29:09.762Z,100272.22
2023-01-03T07:31:40.023Z,100273.19
2023-01-03T07:34:06.647Z,100266.91
2023-01-03T07:36:33.293Z,100265.13
2023-01-03T07:38:59.637Z,100265.94
2023-01-03T07:41:26.165Z,100268.34
2023-01-03T07:43:52.661Z,100266.31
2023-01-03T07:46:24.425Z,100272.34
2023-01-03T07:48:52.908Z,100276.41
2023-01-03T07:51:21.751Z,100282.56
2023-01-03T07:53:52.742Z,100286.91
2023-01-03T07:56:21.288Z,100291.22
2023-01-03T07:58:49.013Z,100290.97
2023-01-03T08:01:21.892Z,100297.97
2023-01-03T08:03:49.202Z,100299.28
2023-01-03T08:06:18.342Z,100307.81
2023-01-03T08:08:45.481Z,100308.81
2023-01-03T08:11:14.423Z,100313.25
2023-01-03T08:13:41.706Z,100311.94
2023-01-03T08:16:10.477Z,100333.81
2023-01-03T08:18:37.867Z,100334.19
2023-01-03T08:21:04.833Z,100358.72
2023-01-03T08:23:31.863Z,100366.28
2023-01-03T08:26:15.876Z,100404.41
2023-01-03T08:28:44.189Z,100468.06
2023-01-03T08:31:32.211Z,100526.03
2023-01-03T08:34:02.604Z,100571.19
2023-01-03T08:36:34.511Z,100597.09
2023-01-03T08:39:05.723Z,100609.72
2023-01-03T08:41:35.771Z,100619.97
2023-01-03T08:44:03.813Z,100629.25
2023-01-03T08:46:31.826Z,100646.69
2023-01-03T08:48:59.508Z,100645.34
2023-01-03T08:51:26.185Z,100656.69
2023-01-03T08:53:53.118Z,100646.94
2023-01-03T08:56:19.933Z,100649.94
2023-01-03T08:58:46.385Z,100648.75
2023-01-03T09:01:12.919Z,100654.19
2023-01-03T09:03:39.503Z,100660.22
2023-01-03T09:06:07.797Z,100661.06
2023-01-03T09:08:34.882Z,100670.72
2023-01-03T09:11:05.891Z,100674.22
2023-01-03T09:13:32.392Z,100673.63
2023-01-03T09:16:10.494Z,100676.03
2023-01-03T09:18:38.641Z,100676.25
2023-01-03T09:21:05.469Z,100670.25
2023-01-03T09:23:33.843Z,100670.59
2023-01-03T09:26:00.646Z,100674.56
2023-01-03T09:28:27.295Z,100683.13
2023-01-03T09:30:53.891Z,100687.34
2023-01-03T09:33:20.542Z,100688.28
2023-01-03T09:35:47.175Z,100692.16
2023-01-03T09:38:13.613Z,100698.69
2023-01-03T09:40:43.343Z,100700.38
2023-01-03T09:43:24.930Z,100699.50
2023-01-03T09:45:54.157Z,100710.25
2023-01-03T09:48:29.541Z,100722.38
2023-01-03T09:53:42.313Z,100693.66
2023-01-03T09:56:13.063Z,100686.16
2023-01-03T09:58:41.233Z,100682.00
2023-01-03T10:01:20.537Z,100680.44
2023-01-03T10:04:11.416Z,100655.88
2023-01-03T10:07:02.387Z,100611.16
2023-01-03T10:09:43.597Z,100589.03
2023-01-03T10:12:41.703Z,100589.22
2023-01-03T10:15:26.167Z,100558.97
2023-01-03T10:18:10.368Z,100543.88
2023-01-03T10:20:47.932Z,100560.09
2023-01-03T10:23:14.739Z,100597.88
2023-01-03T10:25:45.121Z,100605.06
2023-01-03T10:28:36.314Z,100595.88
2023-01-03T10:31:15.896Z,100566.28
2023-01-03T10:33:47.780Z,100530.53
2023-01-03T10:36:16.401Z,100539.94
2023-01-03T10:38:49.843Z,100520.13
2023-01-03T10:41:46.591Z,100490.72
2023-01-03T10:44:32.951Z,100423.50
2023-01-03T10:47:10.829Z,100404.66
2023-01-03T10:49:37.213Z,100400.03
2023-01-03T10:52:18.483Z,100360.38
2023-01-03T10:54:53.304Z,100363.66
2023-01-03T10:57:40.351Z,100357.41
2023-01-03T11:00:27.832Z,100371.94
2023-01-03T11:02:56.487Z,100352.00
2023-01-03T11:05:25.834Z,100367.53
2023-01-03T11:07:58.401Z,100375.06
2023-01-03T11:10:30.978Z,100376.56
2023-01-03T11:12:58.494Z,100340.69
2023-01-03T11:15:39.191Z,100312.25
2023-01-03T11:18:16.465Z,100298.94
2023-01-03T11:21:11.914Z,100247.84
2023-01-03T11:23:57.249Z,100219.09
2023-01-03T11:26:49.474Z,100199.94
2023-01-03T11:29:48.041Z,100156.81
2023-01-03T11:32:24.738Z,100181.72
2023-01-03T11:35:28.548Z,100172.19
2023-01-03T11:38:19.527Z,100151.97
2023-01-03T11:41:04.554Z,100140.94
2023-01-03T11:43:41.481Z,100133.91
2023-01-03T11:46:16.046Z,100124.47
2023-01-03T11:49:00.982Z,100111.97
2023-01-03T11:51:46.982Z,100087.41
2023-01-03T11:54:52.987Z,100080.91
2023-01-03T11:57:22.613Z,100082.53
2023-01-03T12:00:08.899Z,100074.13
2023-01-03T12:02:57.193Z,100082.06
2023-01-03T12:05:42.523Z,100073.91
2023-01-03T12:08:30.747Z,100063.31
2023-01-03T12:11:17.150Z,100070.91
2023-01-03T12:13:46.277Z,100052.16
2023-01-03T12:16:19.250Z,100047.59
2023-01-03T12:19:04.405Z,100048.50
2023-01-03T12:21:36.734Z,100045.44
2023-01-03T12:24:26.440Z,100038.91
2023-01-03T12:27:02.939Z,100039.19
2023-01-03T12:29:38.895Z,100048.75
2023-01-03T12:32:18.616Z,100045.97
2023-01-03T12:34:49.928Z,100042.59
2023-01-03T12:37:22.201Z,100047.56
2023-01-03T12:40:03.375Z,100048.59
2023-01-03T12:42:32.679Z,100047.84
2023-01-03T12:45:27.305Z,100031.72
2023-01-03T12:48:31.078Z,100040.28
2023-01-03T12:50:57.526Z,100027.69
2023-01-03T12:53:34.705Z,100029.75
2023-01-03T12:56:38.172Z,100024.56
2023-01-03T12:59:35.618Z,100030.63
2023-01-03T13:02:36.639Z,100026.28
2023-01-03T13:05:14.343Z,100019.44
2023-01-03T13:07:44.703Z,100020.03
2023-01-03T13:10:17.642Z,100024.56
2023-01-03T13:12:50.133Z,100021.88
2023-01-03T13:15:36.240Z,100020.00
2023-01-03T13:18:23.265Z,100015.31
2023-01-03T13:20:51.318Z,100015.69
2023-01-03T13:23:56.488Z,100006.00
2023-01-03T13:26:28.542Z,100007.28
2023-01-03T13:29:32.950Z,100009.47
2023-01-03T13:32:13.974Z,100023.84
2023-01-03T13:34:40.369Z,100013.44
2023-01-03T13:37:06.850Z,100019.81
2023-01-03T13:39:44.350Z,100026.16
2023-01-03T13:42:22.320Z,100017.13
2023-01-03T13:44:49.258Z,100035.97
2023-01-03T13:47:45.200Z,100042.44
2023-01-03T13:50:34.370Z,100048.06
2023-01-03T13:53:05.612Z,100063.69
2023-01-03T13:55:52.712Z,100083.63
2023-01-03T13:58:41.081Z,100090.94
2023-01-03T14:01:27.161Z,100090.16
2023-01-03T14:04:10.576Z,100100.75
2023-01-03T14:06:53.521Z,100107.41
2023-01-03T14:09:41.487Z,100112.22
2023-01-03T14:12:46.738Z,100110.00
2023-01-03T14:15:26.377Z,100127.38
2023-01-03T14:18:00.288Z,100125.53
2023-01-03T14:20:32.033Z,100118.38
2023-01-03T14:23:17.256Z,100111.63
2023-01-03T14:25:51.224Z,100098.56
2023-01-03T14:28:24.893Z,100092.75
2023-01-03T14:30:54.273Z,100092.50
2023-01-03T14:33:29.805Z,100107.13
2023-01-03T14:36:03.140Z,100102.09
2023-01-03T14:38:34.852Z,100098.59
2023-01-03T14:41:01.801Z,100112.72
2023-01-03T14:43:30.638Z,100117.16
2023-01-03T14:46:05.231Z,100128.91
2023-01-03T14:48:31.926Z,100124.19
2023-01-03T14:51:05.843Z,100143.06
2023-01-03T14:53:33.914Z,100148.28
2023-01-03T14:56:00.860Z,100150.59
2023-01-03T14:58:39.516Z,100167.78
2023-01-03T15:01:11.035Z,100187.84
2023-01-03T15:03:42.107Z,100204.28
2023-01-03T15:06:23.432Z,100211.19
2023-01-03T15:08:52.887Z,100220.75
2023-01-03T15:11:24.797Z,100233.28
2023-01-03T15:13:55.665Z,100233.88
2023-01-03T15:16:21.969Z,100263.75
2023-01-03T15:18:48.637Z,100271.59
2023-01-03T15:21:17.881Z,100275.13
2023-01-03T15:23:46.710Z,100293.88
2023-01-03T15:26:37.310Z,100320.78
2023-01-03T15:29:20.312Z,100337.72
2023-01-03T15:31:46.943Z,100343.72
2023-01-03T15:34:23.491Z,100347.91
2023-01-03T15:36:59.835Z,100367.91
2023-01-03T15:39:38.664Z,100388.75
2023-01-03T15:42:42.740Z,100395.56
2023-01-03T15:44:58.666Z,100418.63
2023-01-03T15:47:30.870Z,100422.38
2023-01-03T15:50:00.371Z,100428.38
2023-01-03T15:52:26.834Z,100431.84
2023-01-03T15:54:53.319Z,100455.69
2023-01-03T15:57:23.294Z,100479.28
2023-01-03T15:59:54.097Z,100482.31
2023-01-03T16:02:21.972Z,100492.78
2023-01-03T16:04:49.823Z,100505.69
2023-01-03T16:07:16.753Z,100520.47
2023-01-03T16:09:43.157Z,100528.56
2023-01-03T16:12:20.206Z,100530.59
2023-01-03T16:14:50.307Z,100550.56
2023-01-03T16:17:24.964Z,100552.47
2023-01-03T16:19:51.869Z,100564.41
2023-01-03T16:22:35.762Z,100574.81
2023-01-03T16:25:04.006Z,100588.09
2023-01-03T16:27:30.581Z,100599.31
2023-01-03T16:29:56.992Z,100606.81
2023-01-03T16:32:29.507Z,100608.53
2023-01-03T16:35:01.853Z,100623.22
2023-01-03T16:37:28.755Z,100628.31
2023-01-03T16:39:55.310Z,100643.94
2023-01-03T16:42:22.537Z,100671.19
2023-01-03T16:44:49.071Z,100692.00
2023-01-03T16:49:58.294Z,100736.06
2023-01-03T16:52:27.882Z,100742.91
2023-01-03T16:54:55.129Z,100752.16
2023-01-03T16:57:24.565Z,100752.00
2023-01-03T16:59:50.961Z,100773.75
2023-01-03T17:02:17.596Z,100776.97
2023-01-03T17:04:44.419Z,100794.75
2023-01-03T17:07:23.622Z,100805.56
2023-01-03T17:12:34.819Z,100817.91
2023-01-03T17:15:01.529Z,100840.25
2023-01-03T17:17:29.092Z,100847.78
2023-01-03T17:20:04.713Z,100858.59
2023-01-03T17:22:31.748Z,100872.88
2023-01-03T17:24:58.083Z,100878.50
2023-01-03T17:27:31.428Z,100878.72
2023-01-03T17:30:02.179Z,100892.25
2023-01-03T17:32:28.815Z,100895.44
2023-01-03T17:34:55.287Z,100912.28
2023-01-03T17:37:22.950Z,100922.34
2023-01-03T17:40:00.649Z,100939.47
2023-01-03T17:42:28.222Z,100937.34
2023-01-03T17:44:54.687Z,100947.50
2023-01-03T17:47:23.128Z,100959.34
2023-01-03T17:49:50.732Z,100967.56
2023-01-03T17:52:24.666Z,100988.06
2023-01-03T17:54:51.644Z,100994.41
2023-01-03T17:57:20.791Z,101014.06
2023-01-03T17:59:47.361Z,101032.50
2023-01-03T18:02:20.520Z,101044.41
2023-01-03T18:05:14.154Z,101039.63
2023-01-03T18:07:34.093Z,101033.97
2023-01-03T18:10:00.710Z,101034.28
2023-01-03T18:12:27.096Z,101044.94
2023-01-03T18:14:54.095Z,101059.19
2023-01-03T18:17:32.480Z,101070.69
2023-01-03T18:20:01.671Z,101072.59
2023-01-03T18:22:28.616Z,101078.16
2023-01-03T18:24:56.837Z,101072.44
2023-01-03T18:27:25.636Z,101079.69
2023-01-03T18:29:52.442Z,101083.56
2023-01-03T18:32:31.432Z,101088.19
2023-01-03T18:34:58.700Z,101086.00
2023-01-03T18:37:32.838Z,101090.63
2023-01-03T18:39:59.356Z,101101.69
2023-01-03T18:42:26.524Z,101108.66
2023-01-03T18:44:52.793Z,100637.00
2023-01-03T18:47:19.221Z,100603.63
2023-01-03T18:49:45.584Z,100597.72
2023-01-03T18:52:24.782Z,100597.81
2023-01-03T18:54:51.445Z,100603.22
2023-01-03T18:57:18.889Z,100583.56
2023-01-03T18:59:45.496Z,100578.69
2023-01-03T19:02:15.064Z,100569.09
2023-01-03T19:04:46.193Z,100571.19
2023-01-03T19:07:33.882Z,100566.00
2023-01-03T19:10:02.156Z,100556.53
2023-01-03T19:12:30.959Z,100551.88
2023-01-03T19:14:57.428Z,100551.41
2023-01-03T19:17:23.803Z,100553.53
2023-01-03T19:19:50.116Z,100540.44
2023-01-03T19:22:27.220Z,100538.13
2023-01-03T19:24:57.145Z,100527.56
2023-01-03T19:27:45.383Z,100517.78
2023-01-03T19:30:23.490Z,100525.16
2023-01-03T19:32:53.592Z,100514.88
2023-01-03T19:35:20.799Z,100530.59
2023-01-03T19:37:47.513Z,100528.16
2023-01-03T19:40:16.111Z,100530.06
2023-01-03T19:42:50.591Z,100531.97
2023-01-03T19:45:31.482Z,100527.53
2023-01-03T19:48:00.594Z,100519.06
2023-01-03T19:50:29.521Z,100519.28
2023-01-03T19:52:56.073Z,100521.16
2023-01-03T19:55:28.353Z,100514.22
2023-01-03T19:57:55.463Z,100502.91
2023-01-03T20:00:25.565Z,100505.88
2023-01-03T20:02:55.531Z,100488.44
2023-01-03T20:05:27.606Z,100494.88
2023-01-03T20:07:53.922Z,100487.19
2023-01-03T20:10:23.677Z,100496.44
2023-01-03T20:12:53.551Z,100493.06
2023-01-03T20:15:26.394Z,100492.28
2023-01-03T20:17:54.677Z,100479.53
2023-01-03T20:20:23.164Z,100486.16
2023-01-03T20:23:07.839Z,100478.53
2023-01-03T20:25:35.716Z,100475.25
2023-01-03T20:28:03.378Z,100475.25
2023-01-03T20:30:31.762Z,100472.09
2023-01-03T20:32:58.493Z,100465.09
2023-01-03T20:38:14.262Z,100454.69
2023-01-03T20:40:40.767Z,100451.03
2023-01-03T20:43:14.047Z,100442.91
2023-01-03T20:45:40.694Z,100456.13
2023-01-03T20:48:19.468Z,100440.34
2023-01-03T20:50:47.480Z,100434.53
2023-01-03T20:53:19.802Z,100437.06
2023-01-03T20:55:47.088Z,100439.81
2023-01-03T20:58:21.922Z,100440.09
2023-01-03T21:00:48.409Z,100440.19
2023-01-03T21:03:14.920Z,100445.66
2023-01-03T21:05:41.656Z,100440.66
2023-01-03T21:08:14.828Z,100440.88
2023-01-03T21:10:44.071Z,100442.66
2023-01-03T21:13:11.275Z,100427.16
2023-01-03T21:15:38.251Z,100421.44
2023-01-03T21:18:05.920Z,100426.72
2023-01-03T21:20:33.172Z,100421.28
2023-01-03T21:22:59.781Z,100422.59
2023-01-03T21:25:29.954Z,100421.66
2023-01-03T21:27:56.279Z,100403.22
2023-01-03T21:30:23.880Z,100393.38
2023-01-03T21:32:50.766Z,100394.19
2023-01-03T21:35:22.337Z,100394.19
2023-01-03T21:37:50.338Z,100395.72
2023-01-03T21:40:27.257Z,100399.28
2023-01-03T21:43:03.059Z,100395.72
2023-01-03T21:45:41.866Z,100399.19
2023-01-03T21:48:11.750Z,100394.97
2023-01-03T21:50:41.048Z,100407.16
2023-01-03T21:53:07.790Z,100406.44
2023-01-03T21:55:34.140Z,100404.53
2023-01-03T21:58:01.045Z,100402.00
2023-01-03T22:00:27.689Z,100407.91
2023-01-03T22:02:59.693Z,100401.50
2023-01-03T22:05:28.090Z,100408.88
2023-01-03T22:07:54.497Z,100410.94
2023-01-03T22:10:21.727Z,100413.19
2023-01-03T22:12:53.678Z,100403.53
2023-01-03T22:15:20.978Z,100405.50
2023-01-03T22:17:47.479Z,100409.19
2023-01-03T22:20:15.872Z,100407.47
2023-01-03T22:22:43.937Z,100397.72
2023-01-03T22:25:13.879Z,100395.28
2023-01-03T22:27:40.367Z,100401.75
2023-01-03T22:30:09.344Z,100401.94
2023-01-03T22:32:35.719Z,100409.09
2023-01-03T22:35:02.098Z,100405.50
2023-01-03T22:37:28.350Z,100410.00
2023-01-03T22:39:54.676Z,100403.53
2023-01-03T22:42:21.913Z,100401.09
2023-01-03T22:44:48.401Z,100400.53
2023-01-03T22:47:16.364Z,100391.78
2023-01-03T22:49:42.677Z,100391.97
2023-01-03T22:52:09.080Z,100394.34
2023-01-03T22:54:35.488Z,100397.06
2023-01-03T22:57:02.913Z,100402.34
2023-01-03T22:59:30.050Z,100392.00
2023-01-03T23:01:56.898Z,100397.25
2023-01-03T23:04:23.466Z,100396.38
2023-01-03T23:06:50.466Z,100392.91
2023-01-03T23:09:17.167Z,100380.63
2023-01-03T23:11:43.786Z,100377.97
2023-01-03T23:14:21.278Z,100363.28
2023-01-03T23:16:48.997Z,100358.28
2023-01-03T23:19:18.493Z,100356.59
2023-01-03T23:21:45.380Z,100360.63
2023-01-03T23:24:13.951Z,100370.19
2023-01-03T23:26:40.378Z,100355.09
2023-01-03T23:29:06.711Z,100354.78
2023-01-03T23:31:33.015Z,100351.63
2023-01-03T23:34:00.141Z,100357.13
2023-01-03T23:36:27.452Z,100359.69
2023-01-03T23:38:55.454Z,100349.44
2023-01-03T23:41:22.069Z,100343.53
2023-01-03T23:43:49.680Z,100352.16
2023-01-03T23:46:21.659Z,100354.03
2023-01-03T23:48:48.712Z,100353.97
2023-01-03T23:51:15.571Z,100333.97
2023-01-03T23:53:43.525Z,100339.41
2023-01-03T23:56:14.259Z,100331.53
2023-01-03T23:58:41.051Z,100328.97
